Skip Navigation LinksHome page > Weather > Current weather Skip Navigation Links

Current Weather

Virginia Tech, Blacksburg, Va.

For information only: do not use for flight planning or navigation.
Latest weather
Observation time Saturday, September 22, 2018 5:15 AM EDT
Local time Saturday, September 22, 2018 5:36 AM EDT
Flight conditions Marginal Visual Meteorological Conditions
Winds
Wind speed calm
Visibility 4 mi.
Present weather mist
Sky condition
Ceiling unlimited
Cloud layer scattered clouds 4,200 ft.
Cloud layer scattered clouds 5,000 ft.
Temperature 66°F
Dewpoint 66°F
Altimeter 30.18 in.Hg
Derived measurements
Relative humidity 100%
Density altitude 2564 ft.
Remarks
Fully automated report.
Automated weather observing station with precipitation discriminator.
METAR KBCB 220915Z AUTO 00000KT 4SM BR SCT042 SCT050 19/19 A3018 RMK AO2 T01870187

Settings

Location code

InnerDrive.Weather 4.0.6770.0 Release CLR 4.0.30319.42000
Copyright ©2018 Inner Drive Technology. All rights reserved. Portions Copyright ©1986-2018 David Braverman.

Find weather

Site navigation


Skip Navigation Links

Place info

Page info

PayPal - The safer, easier way to pay online!

Return home.

Copyright ©2018 Inner Drive Technology. Purveyors of fine, hand-crafted computer software. Page printed 2018-09-22T09:36:11 UTC.